Time;durP1;ratioP1;P1;durP2;ratioP2;P2;SDS_P1;SDS_P2;PMS_P1;PMS_P2;Temp;Humidity;BMP_temperature;BMP_pressure;BME280_temperature;BME280_humidity;BME280_pressure;Samples;Min_cycle;Max_cycle;Signal;HPM_P1;HPM_P2
2021/07/01 00:01:54;;;;;;;;;;;13.70;1.00;;;;;;5048554;28;19909;-59
2021/07/01 00:04:21;;;;;;;;;;;13.70;1.00;;;;;;5048471;28;19908;-59
2021/07/01 00:06:46;;;;;;;;;;;13.80;1.00;;;;;;5048456;28;19915;-59
2021/07/01 00:09:15;;;;;;;;;;;13.80;1.00;;;;;;5064831;28;19991;-59
2021/07/01 00:11:42;;;;;;;;;;;13.80;1.00;;;;;;5068502;28;20030;-56
2021/07/01 00:14:07;;;;;;;;;;;13.80;1.00;;;;;;5068492;28;19912;-58
2021/07/01 00:16:33;;;;;;;;;;;13.80;1.00;;;;;;5068937;28;19927;-59
2021/07/01 00:18:58;;;;;;;;;;;13.80;1.00;;;;;;5067578;28;20352;-59
2021/07/01 00:21:24;;;;;;;;;;;13.70;1.00;;;;;;5068340;28;19968;-59
2021/07/01 00:23:49;;;;;;;;;;;13.70;1.00;;;;;;5065971;28;19986;-59
2021/07/01 00:26:15;;;;;;;;;;;13.70;1.00;;;;;;5047950;28;19913;-62
2021/07/01 00:28:41;;;;;;;;;;;13.60;1.00;;;;;;5047890;28;20384;-58
2021/07/01 00:31:06;;;;;;;;;;;13.60;1.00;;;;;;5048488;28;19951;-59
2021/07/01 00:33:32;;;;;;;;;;;13.60;1.00;;;;;;5047884;28;19928;-59
2021/07/01 00:35:57;;;;;;;;;;;13.70;1.00;;;;;;5051730;28;20082;-57
2021/07/01 00:38:23;;;;;;;;;;;13.70;1.00;;;;;;5051335;28;20413;-59
2021/07/01 00:40:48;;;;;;;;;;;13.70;1.00;;;;;;5051697;28;19932;-59
2021/07/01 00:43:14;;;;;;;;;;;13.70;1.00;;;;;;5052450;28;19917;-59
2021/07/01 00:45:39;;;;;;;;;;;13.60;1.00;;;;;;5056958;28;20012;-57
2021/07/01 00:48:05;;;;;;;;;;;13.60;1.00;;;;;;5062468;28;19913;-59
2021/07/01 00:50:31;;;;;;;;;;;13.60;1.00;;;;;;5072820;28;20319;-59
2021/07/01 00:52:56;;;;;;;;;;;13.50;1.00;;;;;;5070959;28;20431;-59
2021/07/01 00:55:22;;;;;;;;;;;13.50;1.00;;;;;;5071527;28;19958;-58
2021/07/01 00:57:47;;;;;;;;;;;13.50;1.00;;;;;;5071419;28;19912;-59
2021/07/01 01:02:51;;;;;;;;;;;13.40;1.00;;;;;;5071682;28;20372;-57
2021/07/01 01:05:16;;;;;;;;;;;13.40;1.00;;;;;;5072535;28;19908;-59
2021/07/01 01:07:42;;;;;;;;;;;13.40;1.00;;;;;;5070293;28;19912;-59
2021/07/01 01:10:07;;;;;;;;;;;13.40;1.00;;;;;;5071229;28;19956;-59
2021/07/01 01:12:33;;;;;;;;;;;13.30;1.00;;;;;;5072296;28;19962;-59
2021/07/01 01:14:58;;;;;;;;;;;13.30;1.00;;;;;;5072302;28;19912;-56
2021/07/01 01:17:24;;;;;;;;;;;13.30;1.00;;;;;;5071519;28;19928;-58
2021/07/01 01:19:49;;;;;;;;;;;13.30;1.00;;;;;;5071839;28;19908;-57
2021/07/01 01:22:15;;;;;;;;;;;13.30;1.00;;;;;;5071108;28;19908;-53
2021/07/01 01:24:40;;;;;;;;;;;13.30;1.00;;;;;;5062280;28;19922;-57
2021/07/01 01:27:06;;;;;;;;;;;13.30;1.00;;;;;;5051756;28;19913;-57
2021/07/01 01:29:31;;;;;;;;;;;13.30;1.00;;;;;;5050823;28;19909;-58
2021/07/01 01:31:57;;;;;;;;;;;13.30;1.00;;;;;;5051673;28;19909;-58
2021/07/01 01:34:22;;;;;;;;;;;13.30;1.00;;;;;;5050497;28;19916;-59
2021/07/01 01:36:48;;;;;;;;;;;13.20;1.00;;;;;;5050871;28;19961;-59
2021/07/01 01:39:13;;;;;;;;;;;13.20;1.00;;;;;;5049404;28;20265;-58
2021/07/01 01:41:39;;;;;;;;;;;13.20;1.00;;;;;;5051291;28;19943;-59
2021/07/01 01:44:05;;;;;;;;;;;13.20;1.00;;;;;;5051043;28;19990;-57
2021/07/01 01:46:37;;;;;;;;;;;13.20;1.00;;;;;;5050688;28;19909;-61
2021/07/01 01:49:04;;;;;;;;;;;13.20;1.00;;;;;;5050160;28;20012;-59
2021/07/01 01:51:29;;;;;;;;;;;13.10;1.00;;;;;;5032368;28;19957;-59
2021/07/01 01:53:55;;;;;;;;;;;13.10;1.00;;;;;;5065617;28;19949;-59
2021/07/01 01:56:20;;;;;;;;;;;13.10;1.00;;;;;;5070272;28;20013;-59
2021/07/01 01:58:46;;;;;;;;;;;13.10;1.00;;;;;;5070268;28;19919;-58
2021/07/01 02:01:12;;;;;;;;;;;13.10;1.00;;;;;;5071126;28;19908;-56
2021/07/01 02:03:38;;;;;;;;;;;13.10;1.00;;;;;;5070404;28;20002;-59
2021/07/01 02:06:03;;;;;;;;;;;13.20;1.00;;;;;;5070192;28;19912;-61
2021/07/01 02:08:30;;;;;;;;;;;13.10;1.00;;;;;;5069192;28;20202;-58
2021/07/01 02:10:55;;;;;;;;;;;13.20;1.00;;;;;;5070216;28;19909;-58
2021/07/01 02:13:21;;;;;;;;;;;13.20;1.00;;;;;;5070734;28;20002;-58
2021/07/01 02:15:46;;;;;;;;;;;13.20;1.00;;;;;;5070939;28;20250;-57
2021/07/01 02:18:12;;;;;;;;;;;13.20;1.00;;;;;;5069202;28;20066;-59
2021/07/01 02:20:37;;;;;;;;;;;13.20;1.00;;;;;;5069894;28;19991;-58
2021/07/01 02:23:04;;;;;;;;;;;13.30;1.00;;;;;;5067892;28;20083;-59
2021/07/01 02:25:30;;;;;;;;;;;13.20;1.00;;;;;;5052103;28;20328;-58
2021/07/01 02:27:55;;;;;;;;;;;13.30;1.00;;;;;;5050101;28;19909;-56
2021/07/01 02:30:21;;;;;;;;;;;13.30;1.00;;;;;;5050903;28;19912;-58
2021/07/01 02:32:46;;;;;;;;;;;13.30;1.00;;;;;;5049448;28;20626;-59
2021/07/01 02:35:12;;;;;;;;;;;13.30;1.00;;;;;;5050252;28;19956;-59
2021/07/01 02:37:38;;;;;;;;;;;13.30;1.00;;;;;;5048896;28;20372;-60
2021/07/01 02:40:05;;;;;;;;;;;13.30;1.00;;;;;;5049486;28;20386;-58
2021/07/01 02:42:30;;;;;;;;;;;13.40;1.00;;;;;;5050391;28;19908;-59
2021/07/01 02:44:56;;;;;;;;;;;13.30;1.00;;;;;;5049905;28;19909;-57
2021/07/01 02:47:21;;;;;;;;;;;13.30;1.00;;;;;;5049561;28;20003;-59
2021/07/01 02:49:47;;;;;;;;;;;13.30;1.00;;;;;;5049231;28;20027;-59
2021/07/01 02:52:12;;;;;;;;;;;13.20;1.00;;;;;;5050300;28;19928;-59
2021/07/01 02:54:38;;;;;;;;;;;13.20;1.00;;;;;;5068964;28;20091;-59
2021/07/01 02:57:03;;;;;;;;;;;13.20;1.00;;;;;;5068691;28;20011;-59
2021/07/01 02:59:29;;;;;;;;;;;13.20;1.00;;;;;;5069009;28;19984;-59
2021/07/01 03:01:54;;;;;;;;;;;13.20;1.00;;;;;;5069528;28;19927;-59
2021/07/01 03:04:20;;;;;;;;;;;13.20;1.00;;;;;;5069189;28;20365;-59
2021/07/01 03:06:45;;;;;;;;;;;13.30;1.00;;;;;;5069000;28;19962;-57
2021/07/01 03:09:11;;;;;;;;;;;13.30;1.00;;;;;;5067359;28;19951;-59
2021/07/01 03:11:38;;;;;;;;;;;13.30;1.00;;;;;;5069458;28;19948;-62
2021/07/01 03:14:04;;;;;;;;;;;13.30;1.00;;;;;;5069119;28;19916;-59
2021/07/01 03:16:29;;;;;;;;;;;13.40;1.00;;;;;;5068892;28;19912;-58
2021/07/01 03:18:55;;;;;;;;;;;13.40;1.00;;;;;;5068042;28;19978;-59
2021/07/01 03:21:21;;;;;;;;;;;13.40;1.00;;;;;;5068414;28;20235;-58
2021/07/01 03:23:47;;;;;;;;;;;13.50;1.00;;;;;;5067174;28;19920;-60
2021/07/01 03:26:13;;;;;;;;;;;13.50;1.00;;;;;;5048913;28;19909;-59
2021/07/01 03:28:38;;;;;;;;;;;13.50;1.00;;;;;;5048657;28;20074;-54
2021/07/01 03:31:04;;;;;;;;;;;13.60;1.00;;;;;;5048828;28;20107;-59
2021/07/01 03:33:30;;;;;;;;;;;13.60;1.00;;;;;;5048195;28;20284;-59
2021/07/01 03:35:56;;;;;;;;;;;13.60;1.00;;;;;;5048553;28;20079;-57
2021/07/01 03:38:21;;;;;;;;;;;13.60;1.00;;;;;;5047812;28;20400;-57
2021/07/01 03:40:47;;;;;;;;;;;13.60;1.00;;;;;;5048622;28;20498;-58
2021/07/01 03:43:12;;;;;;;;;;;13.60;1.00;;;;;;5048602;28;19916;-59
2021/07/01 03:45:38;;;;;;;;;;;13.60;1.00;;;;;;5053409;28;20245;-59
2021/07/01 03:48:03;;;;;;;;;;;13.60;1.00;;;;;;5059346;28;20235;-59
2021/07/01 03:50:29;;;;;;;;;;;13.70;1.00;;;;;;5069154;28;20018;-59
2021/07/01 03:52:54;;;;;;;;;;;13.70;1.00;;;;;;5067938;28;20295;-59
2021/07/01 03:55:20;;;;;;;;;;;13.70;1.00;;;;;;5068326;28;20423;-59
2021/07/01 03:57:46;;;;;;;;;;;13.80;1.00;;;;;;5067974;28;19912;-60
2021/07/01 04:00:12;;;;;;;;;;;13.70;1.00;;;;;;5068994;28;19908;-59
2021/07/01 04:02:38;;;;;;;;;;;13.70;1.00;;;;;;5068309;28;19909;-60
2021/07/01 04:05:03;;;;;;;;;;;13.80;1.00;;;;;;5069040;28;20007;-59
2021/07/01 04:07:29;;;;;;;;;;;13.80;1.00;;;;;;5067020;28;19912;-59
2021/07/01 04:09:54;;;;;;;;;;;13.80;1.00;;;;;;5067307;28;19915;-59
2021/07/01 04:12:20;;;;;;;;;;;13.80;1.00;;;;;;5068633;28;19912;-59
2021/07/01 04:14:45;;;;;;;;;;;13.80;1.00;;;;;;5068308;28;20436;-58
2021/07/01 04:17:11;;;;;;;;;;;13.80;1.00;;;;;;5068006;28;19912;-62
2021/07/01 04:19:36;;;;;;;;;;;13.80;1.00;;;;;;5067228;28;19912;-58
2021/07/01 04:22:02;;;;;;;;;;;13.80;1.00;;;;;;5067868;28;19978;-58
2021/07/01 04:24:27;;;;;;;;;;;13.90;1.00;;;;;;5060616;28;19939;-61
2021/07/01 04:26:53;;;;;;;;;;;13.90;1.00;;;;;;5048550;28;19931;-61
2021/07/01 04:29:20;;;;;;;;;;;13.90;1.00;;;;;;5047396;28;19970;-59
2021/07/01 04:31:45;;;;;;;;;;;13.90;1.00;;;;;;5048264;28;19959;-61
2021/07/01 04:34:11;;;;;;;;;;;13.90;1.00;;;;;;5048175;28;20024;-62
2021/07/01 04:36:36;;;;;;;;;;;14.00;1.00;;;;;;5056560;28;19917;-57
2021/07/01 04:39:03;;;;;;;;;;;14.00;1.00;;;;;;5066647;28;19999;-57
2021/07/01 04:41:28;;;;;;;;;;;14.10;1.00;;;;;;5054787;28;19923;-59
2021/07/01 04:43:54;;;;;;;;;;;14.10;1.00;;;;;;5043951;28;19913;-59
2021/07/01 04:46:19;;;;;;;;;;;14.10;1.00;;;;;;5047267;28;19909;-58
2021/07/01 04:48:45;;;;;;;;;;;14.20;1.00;;;;;;5046454;28;19913;-59
2021/07/01 04:51:10;;;;;;;;;;;14.30;1.00;;;;;;5047731;28;20246;-59
2021/07/01 04:53:37;;;;;;;;;;;14.40;1.00;;;;;;5059396;28;19912;-58
2021/07/01 04:56:02;;;;;;;;;;;14.40;1.00;;;;;;5068100;28;19916;-63
2021/07/01 04:58:28;;;;;;;;;;;14.50;1.00;;;;;;5067726;28;19908;-58
2021/07/01 05:00:53;;;;;;;;;;;14.60;1.00;;;;;;5068182;28;19912;-57
2021/07/01 05:03:19;;;;;;;;;;;14.60;1.00;;;;;;5066545;28;19959;-59
2021/07/01 05:05:44;;;;;;;;;;;14.70;1.00;;;;;;5066521;28;19940;-60
2021/07/01 05:08:10;;;;;;;;;;;14.70;1.00;;;;;;5064366;28;20388;-59
2021/07/01 05:10:35;;;;;;;;;;;14.70;1.00;;;;;;5056216;28;19973;-59
2021/07/01 05:13:01;;;;;;;;;;;14.70;1.00;;;;;;5059758;28;19919;-59
2021/07/01 05:15:26;;;;;;;;;;;14.70;1.00;;;;;;5068519;28;19946;-59
2021/07/01 05:17:52;;;;;;;;;;;14.60;1.00;;;;;;5066723;28;19916;-60
2021/07/01 05:20:17;;;;;;;;;;;14.60;1.00;;;;;;5069664;28;19922;-62
2021/07/01 05:22:43;;;;;;;;;;;14.60;1.00;;;;;;5052556;28;19913;-60
2021/07/01 05:25:09;;;;;;;;;;;14.70;1.00;;;;;;5053953;28;20039;-59
2021/07/01 05:27:34;;;;;;;;;;;14.60;1.00;;;;;;5051226;28;20334;-61
2021/07/01 05:30:00;;;;;;;;;;;14.70;1.00;;;;;;5059658;28;19924;-60
2021/07/01 05:32:26;;;;;;;;;;;14.70;1.00;;;;;;5068280;28;19912;-61
2021/07/01 05:34:51;;;;;;;;;;;14.70;1.00;;;;;;5068826;28;19917;-59
2021/07/01 05:37:17;;;;;;;;;;;14.70;1.00;;;;;;5067319;28;20070;-60
2021/07/01 05:39:43;;;;;;;;;;;14.70;1.00;;;;;;5067048;28;19908;-60
2021/07/01 05:42:08;;;;;;;;;;;14.80;1.00;;;;;;5068525;28;20340;-56
2021/07/01 05:44:34;;;;;;;;;;;14.80;1.00;;;;;;5068841;28;20006;-59
2021/07/01 05:46:59;;;;;;;;;;;14.90;1.00;;;;;;5068242;28;20553;-58
2021/07/01 05:49:25;;;;;;;;;;;14.90;1.00;;;;;;5067430;28;19912;-62
2021/07/01 05:51:55;;;;;;;;;;;15.00;1.00;;;;;;5067626;28;19948;-58
2021/07/01 05:56:47;;;;;;;;;;;15.00;1.00;;;;;;5048456;28;20272;-60
2021/07/01 05:59:12;;;;;;;;;;;15.00;1.00;;;;;;5047283;28;19909;-60
2021/07/01 06:01:38;;;;;;;;;;;15.00;1.00;;;;;;5047466;28;19913;-56
2021/07/01 06:04:04;;;;;;;;;;;15.10;1.00;;;;;;5047030;28;19974;-57
2021/07/01 06:06:30;;;;;;;;;;;15.10;1.00;;;;;;5047741;28;19979;-58
2021/07/01 06:08:57;;;;;;;;;;;15.30;1.00;;;;;;5052307;28;19948;-57
2021/07/01 06:11:23;;;;;;;;;;;15.40;1.00;;;;;;5046878;28;19916;-60
2021/07/01 06:13:48;;;;;;;;;;;15.40;1.00;;;;;;5047655;28;19909;-63
2021/07/01 06:16:15;;;;;;;;;;;15.40;1.00;;;;;;5065727;28;19912;-59
2021/07/01 06:18:41;;;;;;;;;;;15.50;1.00;;;;;;5065856;28;19966;-61
2021/07/01 06:21:07;;;;;;;;;;;15.60;1.00;;;;;;5066005;28;19913;-61
2021/07/01 06:23:32;;;;;;;;;;;15.70;1.00;;;;;;5067147;28;19913;-62
2021/07/01 06:25:59;;;;;;;;;;;15.70;1.00;;;;;;5048015;28;20327;-61
2021/07/01 06:28:26;;;;;;;;;;;15.80;1.00;;;;;;5046679;28;19913;-61
2021/07/01 06:30:52;;;;;;;;;;;15.80;1.00;;;;;;5065442;28;19939;-60
2021/07/01 06:33:18;;;;;;;;;;;15.80;1.00;;;;;;5057101;28;19917;-62
2021/07/01 06:35:49;;;;;;;;;;;15.90;1.00;;;;;;5062891;28;19920;-60
2021/07/01 06:38:16;;;;;;;;;;;15.90;1.00;;;;;;5066719;28;19912;-62
2021/07/01 06:40:43;;;;;;;;;;;15.90;1.00;;;;;;5067014;28;19982;-61
2021/07/01 06:43:10;;;;;;;;;;;15.90;1.00;;;;;;5066565;28;19927;-62
2021/07/01 06:45:36;;;;;;;;;;;15.80;1.00;;;;;;5067305;28;19970;-62
2021/07/01 06:48:02;;;;;;;;;;;15.80;1.00;;;;;;5060003;28;20342;-61
2021/07/01 06:50:28;;;;;;;;;;;15.90;1.00;;;;;;5069226;28;20361;-59
2021/07/01 06:52:55;;;;;;;;;;;16.00;1.00;;;;;;5068368;28;20053;-59
2021/07/01 06:55:21;;;;;;;;;;;16.00;1.00;;;;;;5070025;28;19965;-61
2021/07/01 06:57:46;;;;;;;;;;;16.10;1.00;;;;;;5068604;28;19931;-60
2021/07/01 07:00:13;;;;;;;;;;;16.20;1.00;;;;;;5069690;28;19909;-62
2021/07/01 07:02:40;;;;;;;;;;;16.20;1.00;;;;;;5068160;28;20028;-62
2021/07/01 07:05:09;;;;;;;;;;;16.20;1.00;;;;;;5069446;28;19908;-61
2021/07/01 07:07:35;;;;;;;;;;;16.30;1.00;;;;;;5064274;28;19912;-61
2021/07/01 07:10:04;;;;;;;;;;;16.40;1.00;;;;;;5048190;28;19909;-62
2021/07/01 07:12:31;;;;;;;;;;;16.50;1.00;;;;;;5048562;28;20121;-61
2021/07/01 07:14:57;;;;;;;;;;;16.60;99.90;;;;;;5049673;28;19939;-60
2021/07/01 07:17:27;;;;;;;;;;;16.80;99.90;;;;;;5048285;28;19970;-60
2021/07/01 07:19:53;;;;;;;;;;;16.80;75.10;;;;;;5061548;28;19908;-62
2021/07/01 07:22:19;;;;;;;;;;;16.80;1.00;;;;;;5068593;28;20372;-61
2021/07/01 07:24:50;;;;;;;;;;;16.80;1.00;;;;;;5058936;28;19913;-60
2021/07/01 07:27:16;;;;;;;;;;;16.70;1.00;;;;;;5048486;28;19913;-63
2021/07/01 07:29:41;;;;;;;;;;;16.60;1.00;;;;;;5057534;28;19914;-62
2021/07/01 07:32:08;;;;;;;;;;;16.50;28.40;;;;;;5052609;28;19912;-60
2021/07/01 07:34:34;;;;;;;;;;;16.30;99.90;;;;;;5048320;28;19920;-62
2021/07/01 07:37:00;;;;;;;;;;;16.20;99.90;;;;;;5049015;28;19924;-62
2021/07/01 07:39:26;;;;;;;;;;;16.20;99.90;;;;;;5047320;28;19909;-63
2021/07/01 07:41:53;;;;;;;;;;;16.20;99.90;;;;;;5049122;28;19909;-63
2021/07/01 07:44:18;;;;;;;;;;;16.20;99.90;;;;;;5048295;28;19909;-60
2021/07/01 07:46:45;;;;;;;;;;;16.20;99.90;;;;;;5061266;28;19919;-60
2021/07/01 07:49:10;;;;;;;;;;;16.20;99.90;;;;;;5067938;28;19913;-63
2021/07/01 07:51:37;;;;;;;;;;;16.30;99.90;;;;;;5067961;28;19914;-62
2021/07/01 07:54:05;;;;;;;;;;;16.20;99.90;;;;;;5051634;28;19938;-60
2021/07/01 07:56:37;;;;;;;;;;;16.20;99.90;;;;;;5048061;28;20007;-62
2021/07/01 07:59:04;;;;;;;;;;;16.20;99.90;;;;;;5047714;28;19909;-62
2021/07/01 08:01:30;;;;;;;;;;;16.30;99.90;;;;;;5048613;28;20078;-61
2021/07/01 08:03:56;;;;;;;;;;;16.40;99.90;;;;;;5048244;28;20445;-61
2021/07/01 08:06:25;;;;;;;;;;;16.70;99.90;;;;;;5048068;28;19916;-60
2021/07/01 08:08:52;;;;;;;;;;;16.90;1.00;;;;;;5060997;28;19932;-60
2021/07/01 08:11:19;;;;;;;;;;;17.10;99.90;;;;;;5067972;28;19936;-60
2021/07/01 08:13:46;;;;;;;;;;;17.20;1.00;;;;;;5068466;28;19908;-57
2021/07/01 08:16:12;;;;;;;;;;;17.10;1.00;;;;;;5068155;28;19912;-60
2021/07/01 08:18:39;;;;;;;;;;;16.90;1.00;;;;;;5067231;28;19909;-61
2021/07/01 08:21:10;;;;;;;;;;;16.90;1.00;;;;;;5067532;28;19919;-59
2021/07/01 08:23:36;;;;;;;;;;;16.80;1.00;;;;;;5056223;28;19970;-57
2021/07/01 08:26:02;;;;;;;;;;;16.90;1.00;;;;;;5049608;28;19913;-60
2021/07/01 08:28:28;;;;;;;;;;;16.80;1.00;;;;;;5047505;28;19978;-61
2021/07/01 08:30:55;;;;;;;;;;;16.90;99.90;;;;;;5047856;28;20325;-59
2021/07/01 08:33:21;;;;;;;;;;;17.00;76.50;;;;;;5063479;28;20243;-60
2021/07/01 08:35:53;;;;;;;;;;;17.00;1.00;;;;;;5067678;28;19955;-59
2021/07/01 08:38:19;;;;;;;;;;;17.00;1.00;;;;;;5067115;28;20369;-59
2021/07/01 08:40:47;;;;;;;;;;;17.00;1.00;;;;;;5067873;28;19946;-59
2021/07/01 08:43:13;;;;;;;;;;;17.30;99.90;;;;;;5067735;28;20258;-59
2021/07/01 08:45:49;;;;;;;;;;;17.50;1.00;;;;;;5067501;28;19958;-59
2021/07/01 08:48:21;;;;;;;;;;;17.50;1.00;;;;;;5066663;28;20272;-60
2021/07/01 08:50:55;;;;;;;;;;;17.60;1.00;;;;;;5067999;28;19974;-60
2021/07/01 08:53:49;;;;;;;;;;;17.80;99.90;;;;;;5067530;28;19912;-61
2021/07/01 08:56:16;;;;;;;;;;;17.90;98.20;;;;;;5052836;28;19912;-60
2021/07/01 08:58:51;;;;;;;;;;;18.10;1.00;;;;;;5070933;28;19939;-61
2021/07/01 09:01:20;;;;;;;;;;;18.20;99.90;;;;;;5071328;28;19912;-60
2021/07/01 09:03:46;;;;;;;;;;;18.40;1.00;;;;;;5071371;28;19908;-60
2021/07/01 09:06:33;;;;;;;;;;;18.50;1.00;;;;;;5071424;28;20325;-57
2021/07/01 09:09:02;;;;;;;;;;;18.70;1.00;;;;;;5054782;28;19912;-61
2021/07/01 09:11:28;;;;;;;;;;;18.80;99.90;;;;;;5051236;28;19915;-62
2021/07/01 09:13:57;;;;;;;;;;;19.00;99.90;;;;;;5051969;28;19913;-58
2021/07/01 09:16:23;;;;;;;;;;;19.20;99.90;;;;;;5052180;28;20154;-60
2021/07/01 09:18:49;;;;;;;;;;;19.30;58.50;;;;;;5054642;28;19912;-61
2021/07/01 09:21:14;;;;;;;;;;;19.50;1.00;;;;;;5071087;28;20002;-61
2021/07/01 09:23:46;;;;;;;;;;;19.80;1.00;;;;;;5070435;28;19994;-62
2021/07/01 09:26:17;;;;;;;;;;;19.90;1.00;;;;;;5051032;28;19972;-59
2021/07/01 09:28:43;;;;;;;;;;;20.20;1.00;;;;;;5051123;28;19913;-61
2021/07/01 09:31:09;;;;;;;;;;;20.60;1.00;;;;;;5071495;28;19926;-62
2021/07/01 09:33:35;;;;;;;;;;;20.80;1.00;;;;;;5052322;28;20033;-61
2021/07/01 09:36:00;;;;;;;;;;;21.00;1.00;;;;;;5050745;28;20410;-62
2021/07/01 09:38:26;;;;;;;;;;;21.30;1.00;;;;;;5049889;28;20014;-61
2021/07/01 09:40:52;;;;;;;;;;;21.50;1.00;;;;;;5050637;28;20014;-60
2021/07/01 09:43:21;;;;;;;;;;;21.70;1.00;;;;;;5051090;28;19970;-62
2021/07/01 09:45:49;;;;;;;;;;;21.90;1.00;;;;;;5056638;28;19916;-62
2021/07/01 09:48:17;;;;;;;;;;;22.00;99.90;;;;;;5061409;28;19912;-61
2021/07/01 09:50:49;;;;;;;;;;;22.00;99.90;;;;;;5071101;28;19919;-62
2021/07/01 09:53:16;;;;;;;;;;;21.70;99.90;;;;;;5069991;28;19920;-58
2021/07/01 09:55:42;;;;;;;;;;;21.40;99.90;;;;;;5070129;28;19913;-60
2021/07/01 09:58:10;;;;;;;;;;;21.20;99.90;;;;;;5070258;28;20207;-59
2021/07/01 10:00:36;;;;;;;;;;;20.80;99.90;;;;;;5070306;28;19932;-61
2021/07/01 10:03:05;;;;;;;;;;;20.40;99.90;;;;;;5070151;28;19912;-60
2021/07/01 10:05:31;;;;;;;;;;;20.20;99.90;;;;;;5070225;28;19984;-60
2021/07/01 10:07:57;;;;;;;;;;;20.10;99.90;;;;;;5061923;28;20286;-59
2021/07/01 10:10:22;;;;;;;;;;;20.00;1.00;;;;;;5050399;28;20346;-59
2021/07/01 10:12:52;;;;;;;;;;;19.90;1.00;;;;;;5050192;28;19909;-61
2021/07/01 10:15:25;;;;;;;;;;;20.00;1.00;;;;;;5050514;28;19908;-61
2021/07/01 10:18:20;;;;;;;;;;;20.00;1.00;;;;;;5063308;28;20257;-60
2021/07/01 10:20:50;;;;;;;;;;;20.00;1.00;;;;;;5043452;28;19934;-62
2021/07/01 10:23:37;;;;;;;;;;;20.00;1.00;;;;;;5067664;28;20371;-62
2021/07/01 10:26:11;;;;;;;;;;;19.90;1.00;;;;;;5062108;28;20348;-62
2021/07/01 10:28:37;;;;;;;;;;;19.90;1.00;;;;;;5069988;28;19908;-62
2021/07/01 10:31:05;;;;;;;;;;;19.90;1.00;;;;;;5069817;28;19996;-61
2021/07/01 10:33:34;;;;;;;;;;;20.00;1.00;;;;;;5069342;28;20007;-66
2021/07/01 10:36:02;;;;;;;;;;;19.90;1.00;;;;;;5069634;28;20395;-61
2021/07/01 10:38:44;;;;;;;;;;;19.60;1.00;;;;;;5054445;28;19913;-61
2021/07/01 10:41:10;;;;;;;;;;;19.50;1.00;;;;;;5049603;28;19982;-62
2021/07/01 10:43:40;;;;;;;;;;;19.40;1.00;;;;;;5049755;28;20261;-62
2021/07/01 10:46:06;;;;;;;;;;;19.40;1.00;;;;;;5050431;28;19948;-59
2021/07/01 10:48:31;;;;;;;;;;;19.10;1.00;;;;;;5049118;28;19975;-59
2021/07/01 10:51:10;;;;;;;;;;;19.10;1.00;;;;;;5049284;28;19939;-61
2021/07/01 10:53:39;;;;;;;;;;;19.00;1.00;;;;;;5048846;28;19995;-60
2021/07/01 10:56:07;;;;;;;;;;;18.80;99.90;;;;;;5066518;28;20023;-61
2021/07/01 10:58:32;;;;;;;;;;;18.30;99.90;;;;;;5068985;28;19920;-61
2021/07/01 11:00:59;;;;;;;;;;;18.30;99.90;;;;;;5069714;28;19912;-59
2021/07/01 11:03:26;;;;;;;;;;;18.30;99.90;;;;;;5056293;28;19994;-60
2021/07/01 11:05:52;;;;;;;;;;;18.20;1.00;;;;;;5060340;28;20433;-61
2021/07/01 11:08:24;;;;;;;;;;;18.00;1.00;;;;;;5062086;28;19995;-61
2021/07/01 11:10:49;;;;;;;;;;;17.60;99.90;;;;;;5049022;28;19969;-61
2021/07/01 11:13:15;;;;;;;;;;;17.60;1.00;;;;;;5049239;28;19909;-61
2021/07/01 11:15:59;;;;;;;;;;;17.80;1.00;;;;;;5049569;28;19915;-60
2021/07/01 11:18:41;;;;;;;;;;;18.00;44.00;;;;;;5062860;28;19912;-61
2021/07/01 11:21:12;;;;;;;;;;;18.20;1.00;;;;;;5066556;28;19913;-60
2021/07/01 11:23:38;;;;;;;;;;;18.50;97.40;;;;;;5055141;28;19912;-59
2021/07/01 11:26:30;;;;;;;;;;;19.00;99.90;;;;;;5066632;28;20046;-61
2021/07/01 11:28:56;;;;;;;;;;;19.40;1.00;;;;;;5064285;28;19992;-58
2021/07/01 11:31:43;;;;;;;;;;;19.30;1.00;;;;;;5069428;28;19909;-61
2021/07/01 11:34:09;;;;;;;;;;;19.00;1.00;;;;;;5068651;28;20340;-61
2021/07/01 11:36:35;;;;;;;;;;;18.80;99.90;;;;;;5068388;28;19909;-60
2021/07/01 11:39:23;;;;;;;;;;;18.70;99.90;;;;;;5067710;28;19916;-61
2021/07/01 11:41:49;;;;;;;;;;;18.60;99.90;;;;;;5069020;28;20337;-60
2021/07/01 11:44:14;;;;;;;;;;;18.40;1.00;;;;;;5068480;28;19908;-60
2021/07/01 11:46:40;;;;;;;;;;;18.40;99.90;;;;;;5069158;28;19916;-61
2021/07/01 11:49:07;;;;;;;;;;;18.30;99.90;;;;;;5067824;28;19915;-59
2021/07/01 11:51:33;;;;;;;;;;;18.10;99.90;;;;;;5067846;28;19947;-61
2021/07/01 11:53:59;;;;;;;;;;;18.10;99.90;;;;;;5040624;28;19969;-61
2021/07/01 11:56:25;;;;;;;;;;;18.20;1.00;;;;;;5055753;28;20365;-61
2021/07/01 11:58:51;;;;;;;;;;;18.40;1.00;;;;;;5057101;28;19992;-60
2021/07/01 12:01:17;;;;;;;;;;;18.70;99.90;;;;;;5058239;28;19940;-61
2021/07/01 12:03:45;;;;;;;;;;;19.10;99.90;;;;;;5056784;28;19908;-61
2021/07/01 12:06:20;;;;;;;;;;;19.70;1.00;;;;;;5058466;28;19909;-61
2021/07/01 12:08:45;;;;;;;;;;;20.10;1.00;;;;;;5057184;28;19915;-61
2021/07/01 12:11:11;;;;;;;;;;;20.80;1.00;;;;;;5056581;28;20007;-60
2021/07/01 12:13:36;;;;;;;;;;;21.10;1.00;;;;;;5056614;28;19915;-61
2021/07/01 12:16:12;;;;;;;;;;;21.30;1.00;;;;;;5057839;28;20024;-60
2021/07/01 12:18:43;;;;;;;;;;;21.60;99.90;;;;;;5056375;28;19912;-61
2021/07/01 12:21:09;;;;;;;;;;;21.90;99.90;;;;;;5055720;28;19921;-61
2021/07/01 12:23:42;;;;;;;;;;;22.00;99.90;;;;;;5056792;28;19963;-62
2021/07/01 12:26:08;;;;;;;;;;;22.00;99.90;;;;;;5057354;28;19909;-61
2021/07/01 12:28:38;;;;;;;;;;;21.90;99.90;;;;;;5056207;28;19946;-63
2021/07/01 12:31:05;;;;;;;;;;;21.80;99.90;;;;;;5055039;28;20029;-61
2021/07/01 12:33:51;;;;;;;;;;;21.80;99.90;;;;;;5052254;28;20325;-61
2021/07/01 12:36:19;;;;;;;;;;;21.90;99.90;;;;;;5051899;28;19913;-61
2021/07/01 12:39:07;;;;;;;;;;;21.70;99.90;;;;;;5051288;28;19912;-61
2021/07/01 12:41:54;;;;;;;;;;;21.60;99.90;;;;;;5052029;28;20383;-62
2021/07/01 12:44:22;;;;;;;;;;;21.40;99.90;;;;;;5051892;28;20324;-61
2021/07/01 12:46:48;;;;;;;;;;;21.40;99.90;;;;;;5058468;28;20427;-60
2021/07/01 12:49:26;;;;;;;;;;;21.30;99.90;;;;;;5059030;28;19908;-61
2021/07/01 12:52:08;;;;;;;;;;;21.30;99.90;;;;;;5052134;28;19980;-61
2021/07/01 12:54:33;;;;;;;;;;;20.90;99.90;;;;;;5055722;28;19921;-61
2021/07/01 12:57:01;;;;;;;;;;;20.50;99.90;;;;;;5059777;28;20395;-61
2021/07/01 12:59:27;;;;;;;;;;;20.10;99.90;;;;;;5060010;28;20018;-61
2021/07/01 13:01:53;;;;;;;;;;;19.90;99.90;;;;;;5062228;28;19952;-61
2021/07/01 13:04:22;;;;;;;;;;;19.70;99.90;;;;;;5058733;28;20345;-61
2021/07/01 13:06:47;;;;;;;;;;;19.60;99.90;;;;;;5066858;28;20019;-62
2021/07/01 13:09:51;;;;;;;;;;;19.60;99.90;;;;;;5053349;28;19913;-62
2021/07/01 13:12:23;;;;;;;;;;;19.40;99.90;;;;;;5010344;28;20339;-62
2021/07/01 13:14:52;;;;;;;;;;;19.00;99.90;;;;;;5009330;28;19917;-62
2021/07/01 13:17:18;;;;;;;;;;;18.80;99.90;;;;;;5009223;28;19913;-62
2021/07/01 13:19:43;;;;;;;;;;;18.70;99.90;;;;;;4998170;28;20334;-63
2021/07/01 13:22:11;;;;;;;;;;;18.70;99.90;;;;;;4996589;28;20015;-62
2021/07/01 13:24:48;;;;;;;;;;;18.70;99.90;;;;;;5008246;28;19913;-62
2021/07/01 13:27:27;;;;;;;;;;;18.70;99.90;;;;;;5009469;28;19913;-61
2021/07/01 13:29:53;;;;;;;;;;;18.80;99.90;;;;;;5009728;28;19910;-62
2021/07/01 13:32:18;;;;;;;;;;;18.80;99.90;;;;;;5009152;28;19921;-60
2021/07/01 13:34:44;;;;;;;;;;;18.70;99.90;;;;;;5008700;28;20310;-62
2021/07/01 13:37:21;;;;;;;;;;;18.50;99.90;;;;;;5008330;28;19917;-62
2021/07/01 13:39:50;;;;;;;;;;;18.50;99.90;;;;;;5008382;28;20362;-62
2021/07/01 13:42:23;;;;;;;;;;;18.50;99.90;;;;;;5015700;28;19919;-62
2021/07/01 13:44:59;;;;;;;;;;;18.40;99.90;;;;;;5051499;28;20377;-63
2021/07/01 13:47:24;;;;;;;;;;;18.50;99.90;;;;;;5060915;28;19916;-63
2021/07/01 13:49:51;;;;;;;;;;;18.50;99.90;;;;;;5071548;28;19909;-61
2021/07/01 13:52:16;;;;;;;;;;;18.50;99.90;;;;;;5070593;28;19915;-62
2021/07/01 13:54:42;;;;;;;;;;;18.60;99.90;;;;;;5070372;28;20274;-63
2021/07/01 13:57:07;;;;;;;;;;;18.60;99.90;;;;;;5070717;28;19919;-62
2021/07/01 13:59:33;;;;;;;;;;;18.60;99.90;;;;;;5070556;28;19912;-62
2021/07/01 14:01:59;;;;;;;;;;;18.60;99.90;;;;;;5071111;28;19908;-62
2021/07/01 14:04:25;;;;;;;;;;;18.70;99.90;;;;;;5070878;28;19973;-63
2021/07/01 14:06:50;;;;;;;;;;;18.90;99.90;;;;;;5070168;28;19909;-62
2021/07/01 14:09:19;;;;;;;;;;;18.90;99.90;;;;;;5069207;28;19924;-63
2021/07/01 14:11:46;;;;;;;;;;;18.90;99.90;;;;;;5070753;28;20377;-60
2021/07/01 14:14:12;;;;;;;;;;;18.80;99.90;;;;;;5062834;28;19909;-62
2021/07/01 14:16:40;;;;;;;;;;;18.80;99.90;;;;;;5050959;28;20406;-61
2021/07/01 14:19:11;;;;;;;;;;;18.90;99.90;;;;;;5055162;28;20295;-61
2021/07/01 14:21:50;;;;;;;;;;;18.90;99.90;;;;;;5068317;28;20266;-61
2021/07/01 14:24:17;;;;;;;;;;;18.90;99.90;;;;;;5054960;28;19908;-62
2021/07/01 14:26:56;;;;;;;;;;;18.90;99.90;;;;;;5062031;28;19983;-61
2021/07/01 14:29:23;;;;;;;;;;;18.90;99.90;;;;;;5059554;28;20264;-62
2021/07/01 14:31:49;;;;;;;;;;;18.90;99.90;;;;;;5053025;28;20011;-61
2021/07/01 14:34:15;;;;;;;;;;;19.00;99.90;;;;;;5049420;28;19924;-62